Time;durP1;ratioP1;P1;durP2;ratioP2;P2;SDS_P1;SDS_P2;PMS_P1;PMS_P2;Temp;Humidity;BMP_temperature;BMP_pressure;BME280_temperature;BME280_humidity;BME280_pressure;Samples;Min_cycle;Max_cycle;Signal;HPM_P1;HPM_P2
2022/01/21 00:01:21;;;;;;;2.47;1.30;;;;;;;-0.11;65.17;99479.63;5065716;28;20064;-67
2022/01/21 00:03:52;;;;;;;1.65;1.10;;;;;;;-0.67;64.69;99402.03;5065987;28;20029;-67
2022/01/21 00:06:22;;;;;;;1.88;1.40;;;;;;;-0.16;65.75;99476.19;5065408;28;20052;-67
2022/01/21 00:08:52;;;;;;;1.73;1.20;;;;;;;-0.48;65.31;99439.19;5064992;28;20048;-67
2022/01/21 00:11:22;;;;;;;1.65;1.17;;;;;;;-0.15;64.93;99477.91;5065526;28;20347;-67
2022/01/21 00:13:51;;;;;;;1.55;1.10;;;;;;;-0.11;64.62;99481.34;5065572;28;20041;-67
2022/01/21 00:16:23;;;;;;;2.83;1.60;;;;;;;-0.17;64.53;99466.66;5064715;28;20104;-67
2022/01/21 00:18:57;;;;;;;3.33;1.70;;;;;;;-0.14;64.42;99471.84;5065608;28;20045;-67
2022/01/21 00:30:08;;;;;;;1.60;1.20;;;;;;;-0.50;63.47;99418.38;5065310;28;20095;-67
2022/01/21 00:32:41;;;;;;;4.28;1.75;;;;;;;-1.23;63.55;99303.66;5065269;28;20041;-67
2022/01/21 00:35:15;;;;;;;2.08;1.30;;;;;;;-1.17;63.19;99322.66;5065507;28;20040;-68
2022/01/21 00:37:50;;;;;;;3.78;2.05;;;;;;;-0.17;64.03;99508.34;5065252;28;20293;-66
2022/01/21 00:40:24;;;;;;;;;;;;;;;-0.26;65.79;99529.25;5065974;28;20041;-68
2022/01/21 00:43:12;;;;;;;2.42;1.40;;;;;;;-0.27;66.40;99545.75;5064705;28;19917;-67
2022/01/21 00:45:44;;;;;;;4.85;1.58;;;;;;;-0.30;68.43;99565.75;5065111;28;20048;-66
2022/01/21 00:48:17;;;;;;;3.15;1.77;;;;;;;-0.60;68.74;99509.59;5065359;28;20063;-66
2022/01/21 00:50:49;;;;;;;2.85;1.58;;;;;;;-0.32;68.11;99563.16;5047683;28;20045;-65
2022/01/21 00:53:23;;;;;;;2.88;1.60;;;;;;;-0.40;66.94;99551.94;5065169;28;20095;-66
2022/01/21 00:55:55;;;;;;;2.03;1.33;;;;;;;-0.48;65.94;99552.00;5066800;28;20059;-67
2022/01/21 00:58:27;;;;;;;2.42;1.38;;;;;;;-0.49;65.49;99542.47;5069431;28;20083;-65
2022/01/21 01:01:00;;;;;;;3.08;1.77;;;;;;;-0.49;65.04;99552.88;5069179;28;20041;-66
2022/01/21 01:03:32;;;;;;;3.38;1.42;;;;;;;-0.86;64.63;99504.56;5069341;28;20064;-66
2022/01/21 01:06:04;;;;;;;2.20;1.30;;;;;;;-0.49;64.41;99588.47;5068860;28;20263;-66
2022/01/21 01:08:38;;;;;;;3.13;1.83;;;;;;;-0.52;64.39;99562.44;5068220;28;20037;-66
2022/01/21 01:11:19;;;;;;;2.80;1.75;;;;;;;-0.55;64.49;99563.34;5069255;28;20083;-66
2022/01/21 01:20:01;;;;;;;2.80;1.40;;;;;;;-0.61;64.18;99575.53;5068360;28;20095;-66
2022/01/21 01:22:42;;;;;;;3.72;1.80;;;;;;;-0.75;64.56;99568.69;5068976;28;20041;-66
2022/01/21 01:28:06;;;;;;;3.67;1.60;;;;;;;-0.80;63.09;99548.75;5068733;28;20047;-66
2022/01/21 01:30:39;;;;;;;2.92;1.50;;;;;;;-1.79;63.05;99451.31;5068684;28;20049;-67
2022/01/21 01:33:14;;;;;;;4.25;1.95;;;;;;;-0.82;62.84;99553.13;5068858;28;20037;-67
2022/01/21 01:35:46;;;;;;;5.32;1.60;;;;;;;-0.86;62.28;99559.22;5067949;28;20045;-66
2022/01/21 01:41:10;;;;;;;3.70;1.65;;;;;;;-0.90;62.22;99536.69;5068369;28;20041;-66
2022/01/21 01:49:29;;;;;;;4.57;2.30;;;;;;;-0.95;61.19;99530.63;5067152;28;20064;-66
2022/01/21 01:52:01;;;;;;;6.05;2.50;;;;;;;-1.05;61.19;99530.66;5068002;28;20045;-65
2022/01/21 01:54:36;;;;;;;2.35;1.63;;;;;;;-0.97;61.37;99540.19;5068608;28;20079;-66
2022/01/21 01:57:10;;;;;;;4.28;1.98;;;;;;;-0.97;61.22;99537.59;5068163;28;20071;-67
2022/01/21 01:59:43;;;;;;;5.80;2.03;;;;;;;-3.19;60.92;99207.81;5068317;28;20087;-67
2022/01/21 02:02:17;;;;;;;8.95;2.25;;;;;;;-1.02;60.52;99542.78;5068195;28;20147;-66
2022/01/21 02:04:50;;;;;;;3.60;1.58;;;;;;;-1.04;60.55;99550.59;5067728;28;20053;-67
2022/01/21 02:07:22;;;;;;;3.05;1.45;;;;;;;-1.04;60.86;99542.78;5067048;28;20051;-67
2022/01/21 02:09:54;;;;;;;2.08;1.48;;;;;;;-1.03;60.42;99554.06;5067762;28;20346;-67
2022/01/21 02:12:28;;;;;;;4.28;1.85;;;;;;;-0.99;60.38;99549.75;5067669;28;20041;-66
2022/01/21 02:15:01;;;;;;;6.05;2.22;;;;;;;-0.95;60.11;99546.25;5066880;28;20049;-66
2022/01/21 02:23:17;;;;;;;4.32;1.85;;;;;;;-1.02;59.48;99569.66;5067793;28;20045;-67
2022/01/21 02:25:50;;;;;;;4.60;1.88;;;;;;;-1.03;59.52;99580.09;5068092;28;20091;-66
2022/01/21 02:28:22;;;;;;;6.22;2.47;;;;;;;-1.43;59.56;99512.66;5066710;28;20293;-67
2022/01/21 02:30:56;;;;;;;3.40;1.98;;;;;;;-1.06;60.05;99580.97;5067850;28;20052;-66
2022/01/21 02:33:28;;;;;;;4.32;2.00;;;;;;;-1.05;59.68;99589.63;5067778;28;20293;-66
2022/01/21 02:36:00;;;;;;;3.17;2.03;;;;;;;-1.07;59.45;99584.44;5067492;28;20091;-67
2022/01/21 02:38:34;;;;;;;3.60;1.95;;;;;;;-1.03;59.42;99586.16;5067711;28;20044;-66
2022/01/21 02:41:06;;;;;;;4.60;1.90;;;;;;;-1.03;59.13;99616.50;5067656;28;20040;-66
2022/01/21 02:43:38;;;;;;;2.65;1.70;;;;;;;-1.00;59.49;99593.09;5067256;28;20098;-66
2022/01/21 02:46:11;;;;;;;3.08;1.67;;;;;;;-1.09;58.99;99632.13;5067414;28;20091;-66
2022/01/21 02:48:43;;;;;;;5.40;2.00;;;;;;;-1.30;58.93;99573.25;5049585;28;20041;-66
2022/01/21 02:51:15;;;;;;;2.95;1.30;;;;;;;-1.16;59.14;99586.22;5067074;28;20083;-67
2022/01/21 02:54:04;;;;;;;4.85;2.13;;;;;;;-1.17;58.87;99600.09;5066753;28;20308;-66
2022/01/21 02:56:34;;;;;;;;;;;;;;;-1.25;58.07;99605.31;5067796;28;20041;-66
2022/01/21 02:59:05;;;;;;;5.97;2.08;;;;;;;-1.60;59.14;99547.38;5049636;28;19970;-66
2022/01/21 03:01:36;;;;;;;3.65;1.80;;;;;;;-1.26;59.14;99618.31;5066262;28;20033;-66
2022/01/21 03:04:06;;;;;;;4.00;1.65;;;;;;;-1.26;58.46;99618.31;5066767;28;20056;-67
2022/01/21 03:06:37;;;;;;;4.18;1.88;;;;;;;-1.31;58.52;99628.75;5066782;28;20099;-66
2022/01/21 03:09:07;;;;;;;6.60;2.55;;;;;;;-1.31;58.65;99639.16;5066672;28;20057;-67
2022/01/21 03:11:35;;;;;;;5.03;1.83;;;;;;;-1.60;58.84;99599.34;5066746;28;20316;-67
2022/01/21 03:14:04;;;;;;;2.88;2.20;;;;;;;-2.21;58.85;99496.44;5065709;28;20312;-67
2022/01/21 03:16:34;;;;;;;5.00;2.03;;;;;;;-1.33;58.46;99651.28;5066465;28;20045;-66
2022/01/21 03:19:04;;;;;;;3.45;2.03;;;;;;;-1.31;58.72;99657.34;5065045;28;20048;-66
2022/01/21 03:21:36;;;;;;;3.80;1.70;;;;;;;-1.31;58.68;99672.94;5066978;28;20100;-66
2022/01/21 03:24:07;;;;;;;6.63;2.42;;;;;;;-1.36;57.97;99672.97;5065576;28;20063;-66
2022/01/21 03:26:35;;;;;;;7.13;2.20;;;;;;;-1.38;58.21;99676.44;5066398;28;20120;-66
2022/01/21 03:29:06;;;;;;;5.15;2.13;;;;;;;-1.40;58.13;99683.38;5065679;28;20052;-67
2022/01/21 03:31:35;;;;;;;4.70;2.45;;;;;;;-1.35;58.45;99672.09;5066471;28;20047;-66
2022/01/21 03:34:05;;;;;;;4.47;2.13;;;;;;;-1.71;58.56;99600.25;5066750;28;20041;-66
2022/01/21 03:36:36;;;;;;;4.82;1.70;;;;;;;-1.63;58.48;99601.97;5066324;28;20037;-66
2022/01/21 03:39:07;;;;;;;2.80;1.50;;;;;;;-1.35;58.45;99646.09;5066377;28;20062;-67
2022/01/21 03:41:36;;;;;;;8.20;2.08;;;;;;;-1.41;58.34;99684.22;5065413;28;20256;-66
2022/01/21 03:44:06;;;;;;;3.25;1.60;;;;;;;-1.42;58.27;99659.97;5065925;28;20212;-67
2022/01/21 03:46:36;;;;;;;3.80;1.83;;;;;;;-1.43;58.76;99662.56;5066218;28;20100;-67
2022/01/21 03:49:08;;;;;;;3.95;1.60;;;;;;;-1.42;58.38;99664.31;5065902;28;20207;-66
2022/01/21 03:51:37;;;;;;;4.82;2.00;;;;;;;-1.44;58.21;99673.84;5066435;28;20037;-66
2022/01/21 03:54:08;;;;;;;3.63;2.10;;;;;;;-1.80;58.22;99602.00;5066347;28;20039;-65
2022/01/21 03:56:39;;;;;;;4.40;1.60;;;;;;;-1.47;58.32;99684.25;5064902;28;20041;-65
2022/01/21 03:59:07;;;;;;;5.30;2.35;;;;;;;-1.63;58.41;99635.75;5064919;28;20060;-65
2022/01/21 04:01:37;;;;;;;3.53;2.22;;;;;;;-1.49;58.32;99671.25;5064898;28;20091;-66
2022/01/21 04:04:07;;;;;;;2.90;1.67;;;;;;;-1.51;58.46;99682.53;5065429;28;20041;-67
2022/01/21 04:06:37;;;;;;;3.88;1.75;;;;;;;-1.52;57.90;99679.06;5065716;28;20041;-66
2022/01/21 04:09:09;;;;;;;6.68;1.52;;;;;;;-1.85;57.91;99630.59;5065723;28;20041;-66
2022/01/21 04:11:37;;;;;;;4.72;2.20;;;;;;;-1.57;57.94;99678.19;5065751;28;20032;-67
2022/01/21 04:14:07;;;;;;;3.65;2.15;;;;;;;-1.58;57.70;99683.41;5065508;28;20100;-66
2022/01/21 04:16:37;;;;;;;4.13;1.80;;;;;;;-1.54;57.84;99685.13;5065936;28;20029;-66
2022/01/21 04:19:07;;;;;;;4.18;2.00;;;;;;;-1.56;57.33;99698.13;5065683;28;20041;-66
2022/01/21 04:21:38;;;;;;;5.93;2.08;;;;;;;-1.57;57.61;99695.53;5065641;28;20037;-66
2022/01/21 04:24:09;;;;;;;2.95;1.58;;;;;;;-1.60;57.19;99703.31;5065291;28;20037;-66
2022/01/21 04:26:38;;;;;;;6.22;2.47;;;;;;;-1.65;57.09;99709.38;5065534;28;20035;-66
2022/01/21 04:29:08;;;;;;;7.57;2.25;;;;;;;-1.69;57.11;99717.19;5065235;28;20052;-66
2022/01/21 04:31:38;;;;;;;4.10;2.05;;;;;;;-1.71;57.45;99722.38;5065257;28;20064;-66
2022/01/21 04:34:08;;;;;;;4.00;2.47;;;;;;;-2.01;57.46;99689.47;5065511;28;20037;-66
2022/01/21 04:36:39;;;;;;;6.13;2.83;;;;;;;-1.73;57.16;99742.31;5065433;28;20107;-66
2022/01/21 04:39:16;;;;;;;5.25;2.72;;;;;;;-1.73;56.97;99737.09;5065431;28;20048;-66
2022/01/21 04:47:15;;;;;;;3.40;2.13;;;;;;;-1.71;57.03;99760.50;5065324;28;20363;-66
2022/01/21 04:47:40;;;;;;;6.90;3.15;;;;;;;-2.71;56.58;99631.38;5065296;28;20310;-66
2022/01/21 04:50:14;;;;;;;;;;;;;;;-1.81;56.18;99785.59;5065518;28;20048;-66
2022/01/21 04:52:46;;;;;;;8.75;2.63;;;;;;;-1.79;56.85;99770.03;5064473;28;20172;-66
2022/01/21 04:55:20;;;;;;;4.60;2.35;;;;;;;-1.79;56.68;99793.41;5065273;28;20102;-66
2022/01/21 04:57:52;;;;;;;4.57;2.10;;;;;;;-1.81;56.67;99798.59;5064523;28;20339;-66
2022/01/21 05:00:25;;;;;;;5.13;2.00;;;;;;;-1.81;57.16;99806.41;5065084;28;20224;-66
2022/01/21 05:02:57;;;;;;;5.65;2.90;;;;;;;-1.76;57.01;99822.84;5064883;28;20082;-66
2022/01/21 05:05:30;;;;;;;7.72;2.05;;;;;;;-1.75;57.07;99834.13;5064820;28;20056;-66
2022/01/21 05:08:05;;;;;;;7.35;2.17;;;;;;;-1.75;57.33;99823.72;5064299;28;20091;-67
2022/01/21 05:10:39;;;;;;;6.28;2.42;;;;;;;-1.77;56.97;99841.91;5064055;28;20247;-66
2022/01/21 05:13:11;;;;;;;4.78;2.63;;;;;;;-1.74;57.04;99844.53;5064903;28;20045;-66
2022/01/21 05:15:59;;;;;;;6.65;3.13;;;;;;;-1.78;56.63;99841.91;5064887;28;20040;-66
2022/01/21 05:18:31;;;;;;;3.92;1.88;;;;;;;-2.68;57.04;99688.47;5064811;28;20048;-66
2022/01/21 05:21:03;;;;;;;4.03;1.95;;;;;;;-1.79;56.45;99843.66;5064839;28;20083;-66
2022/01/21 05:23:36;;;;;;;3.25;2.17;;;;;;;-1.75;56.62;99847.97;5064817;28;20064;-66
2022/01/21 05:26:11;;;;;;;5.93;2.97;;;;;;;-1.78;55.97;99844.50;5064975;28;20091;-66
2022/01/21 05:28:43;;;;;;;3.80;2.08;;;;;;;-1.81;55.77;99847.97;5065044;28;20045;-66
2022/01/21 05:31:16;;;;;;;5.20;2.38;;;;;;;-1.83;55.94;99852.28;5064852;28;20091;-66
2022/01/21 05:33:48;;;;;;;4.45;2.50;;;;;;;-2.12;56.58;99812.38;5064036;28;20041;-66
2022/01/21 05:36:20;;;;;;;4.57;2.00;;;;;;;-1.84;56.49;99879.13;5064651;28;20351;-66
2022/01/21 05:38:52;;;;;;;5.32;2.20;;;;;;;-1.85;56.96;99872.22;5064687;28;20090;-66
2022/01/21 05:41:26;;;;;;;4.78;2.30;;;;;;;-2.19;56.33;99821.00;5064848;28;20099;-66
2022/01/21 05:44:02;;;;;;;7.32;2.13;;;;;;;-1.91;56.21;99882.59;5068635;28;20090;-66
2022/01/21 05:46:54;;;;;;;5.13;1.90;;;;;;;-1.87;56.79;99894.72;5068493;28;20090;-66
2022/01/21 05:49:29;;;;;;;6.57;2.03;;;;;;;-1.85;56.53;99895.59;5068403;28;20315;-66
2022/01/21 05:52:04;;;;;;;3.45;1.90;;;;;;;-1.85;56.85;99897.31;5067613;28;20045;-66
2022/01/21 05:54:36;;;;;;;;;;;;;;;-1.90;55.92;99893.84;5068847;28;20091;-66
2022/01/21 05:57:12;;;;;;;3.85;2.00;;;;;;;-1.97;56.66;99893.81;5067955;28;19920;-66
2022/01/21 05:59:46;;;;;;;4.05;2.00;;;;;;;-1.93;56.87;99884.31;5067894;28;20309;-66
2022/01/21 06:02:19;;;;;;;6.10;2.25;;;;;;;-1.96;56.53;99876.50;5067863;28;20049;-66
2022/01/21 06:04:51;;;;;;;4.82;2.00;;;;;;;-1.99;56.37;99886.88;5067490;28;20057;-66
2022/01/21 06:07:24;;;;;;;4.75;1.90;;;;;;;-2.01;56.35;99891.19;5067805;28;20059;-66
2022/01/21 06:09:56;;;;;;;4.47;2.47;;;;;;;-3.21;56.47;99677.88;5067748;28;20041;-66
2022/01/21 06:12:30;;;;;;;5.72;2.45;;;;;;;-2.00;56.55;99885.16;5067705;28;20182;-66
2022/01/21 06:15:02;;;;;;;7.55;2.95;;;;;;;-2.36;56.41;99826.13;5067583;28;20041;-65
2022/01/21 06:17:35;;;;;;;6.80;1.90;;;;;;;-2.01;56.61;99881.69;5067916;28;20041;-67
2022/01/21 06:20:08;;;;;;;6.50;1.88;;;;;;;-2.05;56.30;99882.53;5067569;28;20083;-66
2022/01/21 06:22:41;;;;;;;3.42;2.17;;;;;;;-2.05;56.10;99885.13;5067382;28;20358;-66
2022/01/21 06:25:13;;;;;;;4.75;2.25;;;;;;;-2.08;56.20;99881.66;5067320;28;20045;-66
2022/01/21 06:27:47;;;;;;;3.42;1.65;;;;;;;-2.07;56.18;99902.44;5067445;28;20036;-66
2022/01/21 06:30:19;;;;;;;3.53;2.42;;;;;;;-2.08;56.12;99907.63;5067538;28;20044;-66
2022/01/21 06:32:51;;;;;;;8.25;1.60;;;;;;;-2.12;56.17;99893.75;5067287;28;20041;-66
2022/01/21 06:35:23;;;;;;;3.47;2.08;;;;;;;-2.09;55.79;99914.53;5067536;28;20227;-66
2022/01/21 06:37:56;;;;;;;5.75;2.20;;;;;;;-2.11;56.10;99911.06;5067158;28;20045;-66
2022/01/21 06:40:28;;;;;;;3.50;1.77;;;;;;;-2.10;55.52;99924.94;5067143;28;20091;-66
2022/01/21 06:43:03;;;;;;;8.98;3.40;;;;;;;-2.13;55.70;99918.00;5067342;28;20040;-66
2022/01/21 06:45:35;;;;;;;;;;;;;;;-2.16;55.23;99924.91;5066974;28;20045;-66
2022/01/21 06:48:07;;;;;;;6.35;1.90;;;;;;;-2.46;55.90;99887.53;5066409;28;19920;-66
2022/01/21 06:50:43;;;;;;;9.52;2.78;;;;;;;-2.13;55.62;99930.97;5066972;28;20285;-66
2022/01/21 06:53:16;;;;;;;7.20;2.33;;;;;;;-2.16;55.69;99927.50;5066010;28;20098;-66
2022/01/21 06:55:48;;;;;;;2.45;1.77;;;;;;;-2.14;55.61;99943.94;5066947;28;20053;-66
2022/01/21 06:58:22;;;;;;;6.80;2.63;;;;;;;-2.29;56.05;99926.56;5067015;28;20063;-66
2022/01/21 07:00:54;;;;;;;5.40;2.25;;;;;;;-2.13;55.70;99946.56;5066931;28;20090;-66
2022/01/21 07:03:26;;;;;;;5.57;2.15;;;;;;;-2.12;55.64;99939.63;5066586;28;20079;-66
2022/01/21 07:05:59;;;;;;;4.47;2.05;;;;;;;-2.14;55.25;99952.63;5066486;28;20083;-66
2022/01/21 07:08:34;;;;;;;4.93;2.03;;;;;;;-2.13;54.62;99964.72;5066511;28;20040;-66
2022/01/21 07:11:06;;;;;;;2.85;1.77;;;;;;;-2.10;55.20;99962.16;5066797;28;20082;-66
2022/01/21 07:13:39;;;;;;;5.22;2.55;;;;;;;-2.12;54.77;99955.22;5066375;28;20040;-66
2022/01/21 07:16:12;;;;;;;4.65;2.00;;;;;;;-3.02;54.80;99867.28;5066611;28;20037;-66
2022/01/21 07:18:44;;;;;;;3.58;2.38;;;;;;;-2.07;54.81;99964.78;5066601;28;20045;-66
2022/01/21 07:21:16;;;;;;;3.80;2.17;;;;;;;-2.06;54.88;99960.44;5066645;28;20251;-66
2022/01/21 07:23:48;;;;;;;4.72;2.92;;;;;;;-2.05;55.24;99957.00;5066315;28;20041;-66
2022/01/21 07:26:20;;;;;;;2.53;1.73;;;;;;;-2.04;54.72;99953.53;5066102;28;20041;-66
2022/01/21 07:28:55;;;;;;;4.70;1.95;;;;;;;-2.01;54.70;99957.00;5066117;28;20041;-66
2022/01/21 07:31:27;;;;;;;3.20;2.25;;;;;;;-2.30;54.30;99914.44;5066309;28;20044;-66
2022/01/21 07:34:04;;;;;;;3.28;1.77;;;;;;;-2.01;53.97;99954.41;5065934;28;20048;-66
2022/01/21 07:36:36;;;;;;;3.08;1.88;;;;;;;-2.20;54.11;99913.63;5066187;28;20223;-65
2022/01/21 07:39:08;;;;;;;4.32;2.42;;;;;;;-1.90;54.45;99961.38;5066258;28;20063;-66
2022/01/21 07:41:39;;;;;;;4.85;1.90;;;;;;;-2.59;53.64;99828.63;5065912;28;20308;-66
2022/01/21 07:44:12;;;;;;;7.82;2.70;;;;;;;-1.84;53.79;99954.50;5064936;28;20319;-66
2022/01/21 07:46:46;;;;;;;6.03;2.00;;;;;;;-1.78;53.72;99953.66;5066041;28;20289;-66
2022/01/21 07:49:15;;;;;;;3.30;2.25;;;;;;;-1.71;53.62;99948.47;5065774;28;20374;-66
2022/01/21 07:51:45;;;;;;;5.60;2.50;;;;;;;-1.56;53.60;99942.47;5065748;28;20197;-66
2022/01/21 07:54:14;;;;;;;4.32;2.45;;;;;;;-1.75;52.81;99873.97;5065661;28;20368;-66
2022/01/21 07:56:44;;;;;;;10.55;2.88;;;;;;;-1.28;53.02;99938.19;5065776;28;20314;-66
2022/01/21 07:59:17;;;;;;;6.65;2.33;;;;;;;-1.15;52.05;99937.34;5066076;28;20045;-66
2022/01/21 08:01:45;;;;;;;3.28;1.75;;;;;;;-1.28;51.53;99875.78;5065521;28;20154;-66
2022/01/21 08:04:15;;;;;;;6.53;2.28;;;;;;;-0.90;51.23;99914.84;5064775;28;20095;-66
2022/01/21 08:06:45;;;;;;;3.50;2.08;;;;;;;-0.85;51.15;99923.53;5065349;28;20218;-66
2022/01/21 08:09:15;;;;;;;4.95;2.72;;;;;;;-0.65;51.28;99938.25;5065157;28;20236;-66
2022/01/21 08:11:45;;;;;;;4.53;2.83;;;;;;;-0.51;50.01;99954.75;5065586;28;20041;-66
2022/01/21 08:14:16;;;;;;;3.85;1.92;;;;;;;-0.39;50.26;99939.97;5065262;28;20232;-66
2022/01/21 08:16:45;;;;;;;4.22;2.10;;;;;;;-0.29;49.94;99958.19;5065377;28;20289;-67
2022/01/21 08:19:15;;;;;;;4.03;2.08;;;;;;;-0.27;50.17;99959.03;5065330;28;20065;-67
2022/01/21 08:21:45;;;;;;;4.18;2.60;;;;;;;-0.25;50.55;99950.34;5065249;28;20355;-66
2022/01/21 08:24:16;;;;;;;3.53;2.25;;;;;;;-0.22;49.48;99954.69;5065081;28;20319;-66
2022/01/21 08:26:46;;;;;;;3.40;2.17;;;;;;;-0.83;49.91;99835.03;5048302;28;20041;-66
2022/01/21 08:29:18;;;;;;;3.45;2.20;;;;;;;-0.53;48.67;99894.84;5064856;28;20207;-67
2022/01/21 08:31:46;;;;;;;3.88;1.60;;;;;;;-0.31;49.42;99923.47;5064986;28;20045;-67
2022/01/21 08:34:16;;;;;;;5.20;1.83;;;;;;;0.03;48.02;99974.59;5065084;28;20040;-66
2022/01/21 08:36:48;;;;;;;4.45;2.08;;;;;;;0.11;49.13;99974.59;5064956;28;20037;-67
2022/01/21 08:39:17;;;;;;;2.80;1.73;;;;;;;0.24;47.60;99977.16;5065286;28;20120;-66
2022/01/21 08:41:46;;;;;;;3.40;1.85;;;;;;;0.36;47.24;99975.38;5065005;28;20037;-66
2022/01/21 08:44:18;;;;;;;4.28;2.45;;;;;;;0.55;48.51;99967.44;5065042;28;20036;-66
2022/01/21 08:46:47;;;;;;;4.22;2.28;;;;;;;0.50;48.29;99929.22;5065247;28;20053;-66
2022/01/21 08:49:19;;;;;;;4.75;2.70;;;;;;;0.94;48.28;99981.16;5065328;28;20293;-67
2022/01/21 08:51:51;;;;;;;7.43;2.20;;;;;;;1.01;47.30;99985.44;5064197;28;20119;-67
2022/01/21 08:54:24;;;;;;;4.20;2.13;;;;;;;1.08;46.86;99979.31;5065552;28;20041;-66
2022/01/21 08:56:57;;;;;;;5.72;2.30;;;;;;;1.21;46.85;99991.41;5065518;28;20083;-66
2022/01/21 08:59:31;;;;;;;4.80;2.22;;;;;;;1.27;45.42;99980.03;5065467;28;20086;-66
2022/01/21 09:02:04;;;;;;;4.37;2.73;;;;;;;0.15;44.70;99791.25;5065099;28;20091;-67
2022/01/21 09:04:36;;;;;;;3.67;2.03;;;;;;;1.46;45.53;100002.53;5064581;28;20114;-67
2022/01/21 09:07:08;;;;;;;5.78;1.75;;;;;;;-0.97;45.36;99714.50;5064771;28;20041;-65
2022/01/21 09:09:40;;;;;;;3.90;2.50;;;;;;;1.53;46.16;99992.88;5064962;28;20292;-66
2022/01/21 09:12:12;;;;;;;4.72;2.10;;;;;;;1.59;45.59;100017.22;5065055;28;20049;-66
2022/01/21 09:14:46;;;;;;;6.93;2.50;;;;;;;1.68;45.21;100003.25;5064817;28;20080;-66
2022/01/21 09:17:19;;;;;;;5.38;2.75;;;;;;;1.76;45.57;100026.69;5067078;28;20220;-66
2022/01/21 09:19:51;;;;;;;4.03;2.22;;;;;;;1.92;45.27;100003.88;5068562;28;20044;-66
2022/01/21 09:22:23;;;;;;;5.07;1.85;;;;;;;1.69;43.60;99968.38;5068461;28;20041;-66
2022/01/21 09:24:56;;;;;;;4.97;2.00;;;;;;;1.79;44.56;99962.19;5068484;28;20102;-66
2022/01/21 09:27:28;;;;;;;5.38;2.00;;;;;;;2.17;44.71;100002.75;5068449;28;20250;-66
2022/01/21 09:30:01;;;;;;;3.78;1.83;;;;;;;2.29;42.89;100009.59;5068438;28;20277;-66
2022/01/21 09:32:35;;;;;;;4.53;1.75;;;;;;;2.09;43.39;99963.63;5068509;28;20040;-66
2022/01/21 09:35:07;;;;;;;5.68;1.92;;;;;;;2.45;43.50;99996.31;5068509;28;20090;-66
2022/01/21 09:37:40;;;;;;;3.45;2.30;;;;;;;2.25;42.39;99956.47;5068272;28;20087;-66
2022/01/21 09:40:13;;;;;;;3.70;1.50;;;;;;;2.51;42.51;100011.94;5067514;28;20094;-66
2022/01/21 09:42:46;;;;;;;3.90;2.38;;;;;;;2.21;42.22;99960.84;5068059;28;20037;-66
2022/01/21 09:45:22;;;;;;;3.65;1.70;;;;;;;1.76;41.34;99847.22;5067941;28;20293;-66
2022/01/21 09:47:58;;;;;;;7.93;2.55;;;;;;;2.33;42.26;99923.22;5067961;28;20088;-67
2022/01/21 09:50:30;;;;;;;4.85;1.85;;;;;;;2.39;43.88;99932.75;5068176;28;20051;-66
2022/01/21 09:53:03;;;;;;;4.05;1.98;;;;;;;2.73;41.51;99969.81;5067948;28;20113;-67
2022/01/21 09:55:36;;;;;;;5.28;2.10;;;;;;;2.70;40.82;99965.47;5067097;28;20087;-67
2022/01/21 09:58:09;;;;;;;5.85;1.85;;;;;;;2.81;41.64;99992.38;5068032;28;20041;-67
2022/01/21 10:00:44;;;;;;;4.30;1.80;;;;;;;2.85;40.35;99960.03;5068089;28;20045;-66
2022/01/21 10:03:16;;;;;;;3.30;1.63;;;;;;;2.91;41.15;99961.69;5067018;28;20053;-66
2022/01/21 10:05:50;;;;;;;3.33;1.75;;;;;;;2.73;40.26;99925.31;5067522;28;20057;-66
2022/01/21 10:08:24;;;;;;;3.38;2.13;;;;;;;3.12;39.84;99970.97;5067642;28;20041;-67
2022/01/21 10:10:56;;;;;;;3.50;2.10;;;;;;;3.20;40.18;99980.44;5067593;28;20048;-67
2022/01/21 10:13:30;;;;;;;3.35;1.70;;;;;;;3.28;40.13;99956.75;5067764;28;20702;-67
2022/01/21 10:16:06;;;;;;;5.40;1.63;;;;;;;3.35;38.29;99968.00;5067583;28;20052;-67
2022/01/21 10:18:38;;;;;;;6.30;1.60;;;;;;;3.37;39.92;99967.09;5067958;28;20045;-67
2022/01/21 10:21:12;;;;;;;6.50;2.08;;;;;;;3.48;40.03;99969.53;5067789;28;20055;-67
2022/01/21 10:23:44;;;;;;;3.95;2.17;;;;;;;2.41;39.79;99798.41;5067410;28;20041;-67
2022/01/21 10:26:23;;;;;;;3.50;1.73;;;;;;;3.53;38.08;99959.84;5067247;28;20067;-67
2022/01/21 10:28:57;;;;;;;5.75;2.20;;;;;;;3.74;38.97;99958.59;5067377;28;20258;-67
2022/01/21 10:31:31;;;;;;;4.25;1.58;;;;;;;3.88;38.54;99980.19;5067052;28;20224;-67
2022/01/21 10:34:05;;;;;;;7.40;2.40;;;;;;;3.98;40.29;99983.50;5067223;28;20095;-67
2022/01/21 10:36:45;;;;;;;3.35;1.70;;;;;;;3.85;37.32;99939.16;5067418;28;20045;-67
2022/01/21 10:39:18;;;;;;;4.30;1.58;;;;;;;4.05;38.87;99967.63;5066859;28;20099;-67
2022/01/21 10:41:48;;;;;;;4.32;1.65;;;;;;;3.73;36.88;99928.03;5067182;28;20109;-67
2022/01/21 10:44:19;;;;;;;2.95;1.80;;;;;;;4.00;38.56;99981.72;5066992;28;20048;-67
2022/01/21 10:47:06;;;;;;;3.45;1.70;;;;;;;4.05;35.65;99972.88;5066677;28;20068;-67
2022/01/21 10:49:42;;;;;;;8.18;2.17;;;;;;;4.03;37.42;100000.88;5066946;28;20108;-68
2022/01/21 10:52:17;;;;;;;2.88;1.40;;;;;;;4.13;37.69;99981.47;5067167;28;20059;-68
2022/01/21 10:54:51;;;;;;;3.45;1.80;;;;;;;4.32;37.90;99976.75;5067067;28;20288;-68
2022/01/21 10:57:24;;;;;;;4.53;2.63;;;;;;;4.13;37.03;99984.09;5066779;28;20297;-65
2022/01/21 10:59:59;;;;;;;4.65;1.65;;;;;;;4.14;37.34;99982.31;5066932;28;20099;-65
2022/01/21 11:02:46;;;;;;;5.63;2.25;;;;;;;4.22;36.82;99962.09;5066788;28;20051;-65
2022/01/21 11:05:30;;;;;;;4.28;1.73;;;;;;;4.18;36.57;99977.00;5066583;28;20056;-65
2022/01/21 11:08:07;;;;;;;3.33;1.50;;;;;;;3.21;37.49;99847.72;5066873;28;20315;-65
2022/01/21 11:10:45;;;;;;;3.03;2.00;;;;;;;4.16;37.60;99972.66;5066420;28;20354;-67
2022/01/21 11:13:42;;;;;;;2.47;1.33;;;;;;;4.16;35.24;99964.78;5065919;28;20090;-68
2022/01/21 11:16:18;;;;;;;4.13;2.15;;;;;;;4.06;38.35;99978.97;5049906;28;20259;-67
2022/01/21 11:18:56;;;;;;;2.78;1.40;;;;;;;4.24;37.66;99959.44;5066006;28;20037;-67
2022/01/21 11:21:43;;;;;;;5.50;1.88;;;;;;;4.34;37.33;99968.84;5066483;28;20086;-67
2022/01/21 11:24:17;;;;;;;3.97;2.05;;;;;;;4.01;39.75;99916.13;5066478;28;20037;-65
2022/01/21 11:26:45;;;;;;;2.67;1.73;;;;;;;4.33;39.20;99957.50;5066160;28;20071;-66
2022/01/21 11:29:17;;;;;;;4.55;1.92;;;;;;;4.12;39.18;99914.16;5066251;28;20248;-66
2022/01/21 11:31:47;;;;;;;4.75;2.53;;;;;;;4.34;39.36;99955.72;5065125;28;20166;-66
2022/01/21 11:34:17;;;;;;;3.70;2.38;;;;;;;3.99;39.59;99911.78;5066074;28;20282;-66
2022/01/21 11:36:46;;;;;;;4.68;1.90;;;;;;;4.18;39.33;99970.88;5066162;28;20036;-67
2022/01/21 11:39:20;;;;;;;3.15;1.90;;;;;;;4.13;39.50;99949.97;5065515;28;20036;-67
2022/01/21 11:41:55;;;;;;;3.10;1.98;;;;;;;3.50;40.35;99855.06;5065980;28;20098;-66
2022/01/21 11:44:29;;;;;;;3.15;1.85;;;;;;;3.58;39.33;99918.69;5065836;28;20048;-66
2022/01/21 11:47:14;;;;;;;3.53;2.28;;;;;;;4.09;39.59;99924.69;5065410;28;20045;-66
2022/01/21 11:49:58;;;;;;;7.65;2.38;;;;;;;4.06;38.56;99923.91;5064805;28;20204;-67
2022/01/21 11:52:31;;;;;;;3.40;2.28;;;;;;;3.92;40.37;99936.41;5065565;28;20045;-67
2022/01/21 11:55:03;;;;;;;3.60;2.10;;;;;;;4.05;40.40;99925.66;5065494;28;20228;-66
2022/01/21 11:57:36;;;;;;;4.15;2.08;;;;;;;4.01;41.29;99913.50;5064925;28;20041;-66
2022/01/21 12:00:17;;;;;;;2.85;1.77;;;;;;;4.13;39.01;99920.25;5065466;28;20228;-66
2022/01/21 12:02:51;;;;;;;4.13;2.17;;;;;;;3.26;39.90;99776.91;5065450;28;20083;-66
2022/01/21 12:05:27;;;;;;;3.67;1.98;;;;;;;4.13;39.12;99896.66;5065306;28;20110;-66
2022/01/21 12:08:04;;;;;;;4.30;2.20;;;;;;;4.14;41.05;99893.13;5065626;28;20187;-65
2022/01/21 12:10:42;;;;;;;4.75;1.90;;;;;;;3.12;38.95;99724.78;5065348;28;20048;-65
2022/01/21 12:13:18;;;;;;;6.70;1.90;;;;;;;3.98;39.47;99831.38;5065172;28;20310;-66
2022/01/21 12:19:19;;;;;;;2.90;2.13;;;;;;;3.90;38.75;99891.00;5062362;28;20057;-67
2022/01/21 12:21:51;;;;;;;3.53;1.67;;;;;;;3.92;40.89;99873.47;5065314;28;20052;-66
2022/01/21 12:24:47;;;;;;;6.35;1.90;;;;;;;4.17;37.73;99858.97;5064416;28;20090;-66
2022/01/21 12:27:20;;;;;;;5.18;2.65;;;;;;;3.88;39.13;99877.91;5065484;28;20331;-67
2022/01/21 12:30:25;;;;;;;3.97;2.22;;;;;;;3.85;38.38;99886.72;5065687;28;20052;-66
2022/01/21 12:33:02;;;;;;;5.50;1.80;;;;;;;2.99;40.18;99775.66;5064934;28;20047;-66
2022/01/21 12:35:35;;;;;;;4.00;1.77;;;;;;;3.81;39.17;99868.44;5065196;28;20383;-66
2022/01/21 12:41:36;;;;;;;3.53;2.03;;;;;;;3.92;38.88;99878.72;5065127;28;20108;-67
2022/01/21 12:44:09;;;;;;;3.55;1.90;;;;;;;3.87;39.61;99878.81;5064966;28;20048;-67
2022/01/21 12:46:45;;;;;;;4.82;2.25;;;;;;;3.77;41.61;99859.78;5065188;28;20044;-66